Flight Track Log - Related Links

Times and Time Zones

All times are in EST time to prevent confusion due to time zone crossing. See the SKW4764 flight status page for this flight to view local times or setup timezone preferences in your user account.

Time Position Orientation Groundspeed Altitude Reporting Facility
EST Latitude Longitude Course Direction KTS MPH feet Rate Location/Type
Sun 07:00:49 PM 40.7739 -111.9989 234° Southwest 171 197 5,000  Level Salt Lake Center
Sun 07:01:50 PM 40.7469 -112.0478 234° Southwest 220 253 7,300 2,043 Climbing Salt Lake Center
Sun 07:02:23 PM 40.7603 -112.0725 305° West 220 253 8,200 1,791 Climbing Salt Lake Center
Sun 07:02:57 PM 40.7997 -112.1206 317° Northwest 285 328 9,300 2,262 Climbing Salt Lake Center
Sun 07:03:24 PM 40.8386 -112.1269 353° North 292 336 10,500 2,494 Climbing Salt Lake Center
Sun 07:04:26 PM 40.9139 -112.0747 28° Northeast 312 359 13,000 1,935 Climbing Salt Lake Center
Sun 07:05:28 PM 40.9928 -112.0128 31° Northeast 332 382 14,500 1,512 Climbing Salt Lake Center
Sun 07:06:29 PM 41.0811 -111.9397 32° Northeast 364 419 16,100 1,366 Climbing Salt Lake Center
Sun 07:07:31 PM 41.1742 -111.8650 31° Northeast 380 437 17,300 1,366 Climbing Salt Lake Center
Sun 07:08:32 PM 41.2725 -111.7911 29° Northeast 401 461 18,900 1,512 Climbing Salt Lake Center
Sun 07:09:34 PM 41.3700 -111.7214 28° Northeast 398 458 20,400 1,317 Climbing Salt Lake Center
Sun 07:10:35 PM 41.4753 -111.6758 18° North 396 456 21,600 1,073 Climbing Salt Lake Center
Sun 07:11:37 PM 41.5847 -111.6481 11° North 398 458 22,600 968 Climbing Salt Lake Center
Sun 07:12:39 PM 41.6878 -111.6936 342° North 393 452 23,600 927 Climbing Salt Lake Center
Sun 07:13:40 PM 41.7919 -111.7378 342° North 394 453 24,500 780 Climbing Salt Lake Center
Sun 07:14:42 PM 41.9158 -111.7922 342° North 392 451 25,200 585 Climbing Salt Lake Center
Sun 07:15:43 PM 42.0244 -111.8364 343° North 404 465 25,700 585 Climbing Salt Lake Center
Sun 07:16:45 PM 42.1308 -111.8806 343° North 403 464 26,400 780 Climbing Salt Lake Center
Sun 07:17:46 PM 42.2356 -111.9253 342° North 398 458 27,300 878 Climbing Salt Lake Center
Sun 07:18:48 PM 42.3408 -111.9708 342° North 396 456 28,200 927 Climbing Salt Lake Center
Sun 07:19:49 PM 42.4450 -112.0150 343° North 393 452 29,200 878 Climbing Salt Lake Center
Sun 07:20:51 PM 42.5467 -112.0589 342° North 386 444 30,000 387 Climbing Salt Lake Center
Sun 07:21:53 PM 42.6731 -112.1142 342° North 396 456 30,000  Level Salt Lake Center
Sun 07:22:54 PM 42.7792 -112.1569 344° North 411 473 30,000  Level Salt Lake Center
Sun 07:23:56 PM 42.8850 -112.2025 342° North 417 480 30,000  Level Salt Lake Center
Sun 07:24:57 PM 43.0064 -112.2558 342° North 410 472 30,000  Level Salt Lake Center
Sun 07:25:59 PM 43.1100 -112.3008 342° North 407 468 30,000  Level Salt Lake Center
Sun 07:27:01 PM 43.2297 -112.3533 342° North 404 465 30,000  Level Salt Lake Center
Sun 07:28:02 PM 43.3331 -112.3981 343° North 406 467 30,000  Level Salt Lake Center
Sun 07:29:04 PM 43.4372 -112.4442 342° North 409 471 30,000  Level Salt Lake Center
Sun 07:30:05 PM 43.5603 -112.5000 342° North 414 476 30,000  Level Salt Lake Center
Sun 07:31:07 PM 43.6647 -112.5458 342° North 411 473 30,000  Level Salt Lake Center
Sun 07:32:09 PM 43.7861 -112.5997 342° North 411 473 30,000  Level Salt Lake Center
Sun 07:33:10 PM 43.8878 -112.6450 342° North 405 466 30,000  Level Salt Lake Center
Sun 07:34:12 PM 44.0075 -112.6992 342° North 403 464 30,000  Level Salt Lake Center
Sun 07:35:13 PM 44.1122 -112.7467 342° North 409 471 30,000  Level Salt Lake Center
Sun 07:36:15 PM 44.2183 -112.7950 342° North 413 475 30,000  Level Salt Lake Center
Sun 07:37:17 PM 44.3419 -112.8517 342° North 416 479 30,000  Level Salt Lake Center
Sun 07:38:18 PM 44.4469 -112.9000 342° North 414 476 30,000  Level Salt Lake Center
Sun 07:39:20 PM 44.5653 -112.9700 337° Northwest 412 474 30,000  Level Salt Lake Center
Sun 07:40:21 PM 44.6631 -113.0422 332° Northwest 412 474 30,000  Level Salt Lake Center
Sun 07:41:23 PM 44.7606 -113.1125 333° Northwest 411 473 30,000  Level Salt Lake Center
Sun 07:42:24 PM 44.8697 -113.1928 332° Northwest 400 460 30,000  Level Salt Lake Center
Sun 07:43:26 PM 44.9639 -113.2631 332° Northwest 398 458 30,000  Level Salt Lake Center
Sun 07:44:28 PM 45.0764 -113.3458 333° Northwest 405 466 30,000  Level Salt Lake Center
Sun 07:45:29 PM 45.1728 -113.4167 333° Northwest 408 470 30,000  Level Salt Lake Center
Sun 07:46:31 PM 45.2697 -113.4906 332° Northwest 412 474 30,000  Level Salt Lake Center
Sun 07:47:32 PM 45.3869 -113.5786 332° Northwest 412 474 30,000  Level Salt Lake Center
Sun 07:48:34 PM 45.4881 -113.6531 333° Northwest 421 484 30,000  Level Salt Lake Center
Sun 07:49:36 PM 45.5894 -113.7303 332° Northwest 418 481 30,000  Level Salt Lake Center
Sun 07:50:37 PM 45.6878 -113.8008 333° Northwest 414 476 30,000  Level Salt Lake Center
Sun 07:51:39 PM 45.7850 -113.8767 331° Northwest 403 464 30,000 -195 Level Salt Lake Center
Sun 07:52:40 PM 45.8847 -113.9539 332° Northwest 407 468 29,600 -1,610 Descending Salt Lake Center
Sun 07:53:42 PM 46.0081 -114.0483 332° Northwest 417 480 26,700 -2,613 Descending Salt Lake Center
Sun 07:54:44 PM 46.1139 -114.1322 331° Northwest 428 493 24,200 -2,439 Descending Salt Lake Center
Sun 07:55:45 PM 46.2156 -114.2092 332° Northwest 417 480 21,700 -2,439 Descending Salt Lake Center
Sun 07:56:47 PM 46.3153 -114.2864 332° Northwest 409 471 19,200 -2,439 Descending Salt Lake Center
Sun 07:57:48 PM 46.4189 -114.3664 332° Northwest 397 457 16,700 -2,098 Descending Salt Lake Center
Sun 07:58:50 PM 46.5044 -114.4342 331° Northwest 384 442 14,900 -1,902 Descending Salt Lake Center
Sun 07:59:51 PM 46.5961 -114.5053 332° Northwest 376 433 12,800 -1,415 Descending Salt Lake Center
Sun 08:00:53 PM 46.6856 -114.5772 331° Northwest 370 426 12,000 -387 Descending Salt Lake Center
Sun 08:01:55 PM 46.8078 -114.6161 348° North 376 433 12,000 -49 Level Salt Lake Center
Sun 08:02:56 PM 46.9039 -114.6286 355° North 353 406 11,900  Descending Salt Lake Center
Sun 08:03:58 PM 46.9853 -114.6378 356° North 298 343 12,000 -585 Climbing Salt Lake Center
Sun 08:04:59 PM 47.0764 -114.6525 354° North 305 351 10,700 -1,171 Descending Salt Lake Center
Sun 08:06:01 PM 47.1503 -114.6000 26° Northeast 308 354 9,600 -823 Descending Salt Lake Center
Sun 08:07:03 PM 47.1506 -114.4944 90° East 265 305 9,000 -488 Descending Salt Lake Center
Sun 08:08:04 PM 47.1111 -114.4236 129° Southeast 202 232 8,600 -439 Descending Salt Lake Center
Sun 08:09:06 PM 47.0778 -114.3725 134° Southeast 176 203 8,100 -683 Descending Salt Lake Center
Sun 08:10:07 PM 47.0503 -114.3244 130° Southeast 157 181 7,200 -878 Descending Salt Lake Center
Sun 08:11:09 PM 47.0217 -114.2733 129° Southeast 151 174 6,300 -829 Descending Salt Lake Center
Sun 08:12:10 PM 46.9958 -114.2281 130° Southeast 147 169 5,500 -780 Descending Salt Lake Center
Sun 08:13:12 PM 46.9711 -114.1867 131° Southeast 138 159 4,700 -829 Descending Salt Lake Center
Sun 08:14:13 PM 46.9433 -114.1389 130° Southeast 142 163 3,800 -732 Descending Salt Lake Center
Sun 08:15:15 PM 46.9222 -114.1028 131° Southeast 140 161 3,200 -581 Descending Salt Lake Center

Login

Don't have an account? Register now (free) for customized features, flight alerts, and more!